<?xml version='1.0' encoding='UTF-8'?><gpx version="1.1" creator="JPX - https://github.com/jenetics/jpx" xmlns="http://www.topografix.com/GPX/1/1"><trk><trkseg><trkpt lat="43.8819827" lon="11.1800528"><ele>91.0</ele><time>2026-04-11T15:27:05.071Z</time></trkpt><trkpt lat="43.8819" lon="11.1799954"><ele>91.0</ele><time>2026-04-11T15:27:07.071Z</time></trkpt><trkpt lat="43.8818298" lon="11.1799584"><ele>91.0</ele><time>2026-04-11T15:27:10.071Z</time></trkpt><trkpt lat="43.8818211" lon="11.1798516"><ele>91.0</ele><time>2026-04-11T15:27:26.071Z</time></trkpt><trkpt lat="43.8818691" lon="11.1797451"><ele>91.0</ele><time>2026-04-11T15:27:28.071Z</time></trkpt><trkpt lat="43.8819184" lon="11.1796191"><ele>91.0</ele><time>2026-04-11T15:27:30.071Z</time></trkpt><trkpt lat="43.8819462" lon="11.1794477"><ele>91.33333333333333</ele><time>2026-04-11T15:27:32.071Z</time></trkpt><trkpt lat="43.8819296" lon="11.1793538"><ele>91.66666666666666</ele><time>2026-04-11T15:27:33.071Z</time></trkpt><trkpt lat="43.8818983" lon="11.1792533"><ele>92.0</ele><time>2026-04-11T15:27:34.071Z</time></trkpt><trkpt lat="43.8818567" lon="11.1791544"><ele>92.33333333333333</ele><time>2026-04-11T15:27:35.072Z</time></trkpt><trkpt lat="43.8818173" lon="11.1790566"><ele>92.66666666666667</ele><time>2026-04-11T15:27:36.08Z</time></trkpt><trkpt lat="43.8817703" lon="11.1789484"><ele>93.0</ele><time>2026-04-11T15:27:37.071Z</time></trkpt><trkpt lat="43.8817204" lon="11.1788503"><ele>95.16666666666667</ele><time>2026-04-11T15:27:38.071Z</time></trkpt><trkpt lat="43.8816689" lon="11.1787706"><ele>97.33333333333334</ele><time>2026-04-11T15:27:39.071Z</time></trkpt><trkpt lat="43.8816152" lon="11.1786971"><ele>99.5</ele><time>2026-04-11T15:27:40.071Z</time></trkpt><trkpt lat="43.8815588" lon="11.1786216"><ele>101.66666666666667</ele><time>2026-04-11T15:27:41.07Z</time></trkpt><trkpt lat="43.8815012" lon="11.1785414"><ele>103.83333333333334</ele><time>2026-04-11T15:27:42.071Z</time></trkpt><trkpt lat="43.8814448" lon="11.1784546"><ele>106.0</ele><time>2026-04-11T15:27:43.071Z</time></trkpt><trkpt lat="43.8813868" lon="11.1783648"><ele>106.0</ele><time>2026-04-11T15:27:44.071Z</time></trkpt><trkpt lat="43.8813246" lon="11.1782703"><ele>106.0</ele><time>2026-04-11T15:27:45.071Z</time></trkpt><trkpt lat="43.8812648" lon="11.1781677"><ele>106.0</ele><time>2026-04-11T15:27:46.071Z</time></trkpt><trkpt lat="43.8812098" lon="11.1780669"><ele>106.0</ele><time>2026-04-11T15:27:47.071Z</time></trkpt><trkpt lat="43.8811572" lon="11.1779639"><ele>106.0</ele><time>2026-04-11T15:27:48.071Z</time></trkpt><trkpt lat="43.881107" lon="11.1778519"><ele>105.0</ele><time>2026-04-11T15:27:49.071Z</time></trkpt><trkpt lat="43.8810609" lon="11.1777284"><ele>104.0</ele><time>2026-04-11T15:27:50.071Z</time></trkpt><trkpt lat="43.8810208" lon="11.1776053"><ele>103.0</ele><time>2026-04-11T15:27:51.071Z</time></trkpt><trkpt lat="43.8809805" lon="11.1774841"><ele>102.0</ele><time>2026-04-11T15:27:52.071Z</time></trkpt><trkpt lat="43.8809362" lon="11.1773656"><ele>101.0</ele><time>2026-04-11T15:27:53.07Z</time></trkpt><trkpt lat="43.8808915" lon="11.1772435"><ele>101.0</ele><time>2026-04-11T15:27:54.071Z</time></trkpt><trkpt lat="43.8808492" lon="11.1771039"><ele>101.0</ele><time>2026-04-11T15:27:55.071Z</time></trkpt><trkpt lat="43.8808063" lon="11.1769648"><ele>101.0</ele><time>2026-04-11T15:27:56.071Z</time></trkpt><trkpt lat="43.8807557" lon="11.1768231"><ele>101.0</ele><time>2026-04-11T15:27:57.071Z</time></trkpt><trkpt lat="43.8807008" lon="11.176688"><ele>101.0</ele><time>2026-04-11T15:27:58.07Z</time></trkpt><trkpt lat="43.8806369" lon="11.1765429"><ele>102.5</ele><time>2026-04-11T15:27:59.071Z</time></trkpt><trkpt lat="43.8805671" lon="11.1763903"><ele>104.0</ele><time>2026-04-11T15:28:00.071Z</time></trkpt><trkpt lat="43.8804994" lon="11.176239"><ele>105.5</ele><time>2026-04-11T15:28:01.071Z</time></trkpt><trkpt lat="43.8804268" lon="11.1760912"><ele>107.0</ele><time>2026-04-11T15:28:02.071Z</time></trkpt><trkpt lat="43.8803614" lon="11.1759539"><ele>107.0</ele><time>2026-04-11T15:28:03.071Z</time></trkpt><trkpt lat="43.8803041" lon="11.1758233"><ele>106.99999999999999</ele><time>2026-04-11T15:28:04.071Z</time></trkpt><trkpt lat="43.8802531" lon="11.1756963"><ele>106.99999999999999</ele><time>2026-04-11T15:28:05.071Z</time></trkpt><trkpt lat="43.8801999" lon="11.1755594"><ele>107.0</ele><time>2026-04-11T15:28:06.071Z</time></trkpt><trkpt lat="43.8801462" lon="11.1754251"><ele>107.0</ele><time>2026-04-11T15:28:07.071Z</time></trkpt><trkpt lat="43.8800936" lon="11.1752916"><ele>106.0</ele><time>2026-04-11T15:28:08.071Z</time></trkpt><trkpt lat="43.880033" lon="11.1751682"><ele>105.0</ele><time>2026-04-11T15:28:09.071Z</time></trkpt><trkpt lat="43.8799621" lon="11.175047"><ele>104.0</ele><time>2026-04-11T15:28:10.071Z</time></trkpt><trkpt lat="43.8798785" lon="11.1749368"><ele>103.0</ele><time>2026-04-11T15:28:11.071Z</time></trkpt><trkpt lat="43.8797932" lon="11.1748242"><ele>103.0</ele><time>2026-04-11T15:28:12.071Z</time></trkpt><trkpt lat="43.8797166" lon="11.1746896"><ele>103.0</ele><time>2026-04-11T15:28:13.071Z</time></trkpt><trkpt lat="43.8796532" lon="11.1745732"><ele>103.0</ele><time>2026-04-11T15:28:14.071Z</time></trkpt><trkpt lat="43.8795837" lon="11.1744633"><ele>103.0</ele><time>2026-04-11T15:28:15.071Z</time></trkpt><trkpt lat="43.8795123" lon="11.1743711"><ele>103.0</ele><time>2026-04-11T15:28:16.071Z</time></trkpt><trkpt lat="43.8794423" lon="11.174262"><ele>102.99999999999999</ele><time>2026-04-11T15:28:17.071Z</time></trkpt><trkpt lat="43.8793725" lon="11.1741736"><ele>103.0</ele><time>2026-04-11T15:28:18.071Z</time></trkpt><trkpt lat="43.879312" lon="11.1741026"><ele>103.0</ele><time>2026-04-11T15:28:19.071Z</time></trkpt><trkpt lat="43.8792653" lon="11.1740293"><ele>103.0</ele><time>2026-04-11T15:28:20.07Z</time></trkpt><trkpt lat="43.8792262" lon="11.173952"><ele>103.0</ele><time>2026-04-11T15:28:21.071Z</time></trkpt><trkpt lat="43.8792019" lon="11.1738697"><ele>102.99999999999999</ele><time>2026-04-11T15:28:22.071Z</time></trkpt><trkpt lat="43.8791927" lon="11.1737831"><ele>103.0</ele><time>2026-04-11T15:28:23.071Z</time></trkpt><trkpt lat="43.8792285" lon="11.173649"><ele>102.66666666666667</ele><time>2026-04-11T15:28:25.071Z</time></trkpt><trkpt lat="43.8792804" lon="11.1735849"><ele>102.33333333333334</ele><time>2026-04-11T15:28:28.071Z</time></trkpt><trkpt lat="43.8793355" lon="11.1735313"><ele>102.0</ele><time>2026-04-11T15:28:37.071Z</time></trkpt><trkpt lat="43.8794171" lon="11.1734446"><ele>101.66666666666666</ele><time>2026-04-11T15:28:40.071Z</time></trkpt><trkpt lat="43.8795023" lon="11.173357"><ele>101.33333333333333</ele><time>2026-04-11T15:28:42.071Z</time></trkpt><trkpt lat="43.8795577" lon="11.1732998"><ele>101.0</ele><time>2026-04-11T15:28:43.071Z</time></trkpt><trkpt lat="43.8796374" lon="11.1732167"><ele>101.0</ele><time>2026-04-11T15:28:45.071Z</time></trkpt><trkpt lat="43.8796611" lon="11.1731327"><ele>101.0</ele><time>2026-04-11T15:28:48.071Z</time></trkpt><trkpt lat="43.8796135" lon="11.1732441"><ele>101.0</ele><time>2026-04-11T15:29:10.071Z</time></trkpt><trkpt lat="43.8795132" lon="11.1733372"><ele>101.0</ele><time>2026-04-11T15:29:12.071Z</time></trkpt><trkpt lat="43.8794509" lon="11.1734036"><ele>101.0</ele><time>2026-04-11T15:29:13.071Z</time></trkpt><trkpt lat="43.8793765" lon="11.1734812"><ele>100.99999999999999</ele><time>2026-04-11T15:29:14.071Z</time></trkpt><trkpt lat="43.879308" lon="11.1735548"><ele>101.0</ele><time>2026-04-11T15:29:15.07Z</time></trkpt><trkpt lat="43.8792494" lon="11.1736277"><ele>101.0</ele><time>2026-04-11T15:29:16.071Z</time></trkpt><trkpt lat="43.8792131" lon="11.1737041"><ele>101.0</ele><time>2026-04-11T15:29:17.071Z</time></trkpt><trkpt lat="43.8792021" lon="11.1738304"><ele>100.99999999999999</ele><time>2026-04-11T15:29:19.071Z</time></trkpt><trkpt lat="43.8791965" lon="11.1739221"><ele>101.0</ele><time>2026-04-11T15:29:22.071Z</time></trkpt><trkpt lat="43.8791207" lon="11.1739307"><ele>99.71428571428571</ele><time>2026-04-11T15:29:25.07Z</time></trkpt><trkpt lat="43.8790725" lon="11.1738182"><ele>98.42857142857142</ele><time>2026-04-11T15:29:27.071Z</time></trkpt><trkpt lat="43.8790591" lon="11.1737238"><ele>97.14285714285714</ele><time>2026-04-11T15:29:28.071Z</time></trkpt><trkpt lat="43.8790447" lon="11.173622"><ele>95.85714285714286</ele><time>2026-04-11T15:29:29.071Z</time></trkpt><trkpt lat="43.8790331" lon="11.1735315"><ele>94.57142857142857</ele><time>2026-04-11T15:29:30.071Z</time></trkpt><trkpt lat="43.8790193" lon="11.1734332"><ele>93.28571428571429</ele><time>2026-04-11T15:29:31.07Z</time></trkpt><trkpt lat="43.8790068" lon="11.1733403"><ele>92.0</ele><time>2026-04-11T15:29:32.071Z</time></trkpt><trkpt lat="43.8789937" lon="11.1731803"><ele>92.0</ele><time>2026-04-11T15:29:34.071Z</time></trkpt><trkpt lat="43.8789569" lon="11.1730252"><ele>92.0</ele><time>2026-04-11T15:29:36.071Z</time></trkpt><trkpt lat="43.8789316" lon="11.1729422"><ele>92.0</ele><time>2026-04-11T15:29:37.071Z</time></trkpt><trkpt lat="43.8789058" lon="11.172851"><ele>92.0</ele><time>2026-04-11T15:29:38.071Z</time></trkpt><trkpt lat="43.8788858" lon="11.172759"><ele>92.0</ele><time>2026-04-11T15:29:39.071Z</time></trkpt><trkpt lat="43.8788634" lon="11.1726665"><ele>92.0</ele><time>2026-04-11T15:29:40.071Z</time></trkpt><trkpt lat="43.8788366" lon="11.1725785"><ele>92.0</ele><time>2026-04-11T15:29:41.071Z</time></trkpt><trkpt lat="43.8787675" lon="11.1724378"><ele>92.0</ele><time>2026-04-11T15:29:43.071Z</time></trkpt><trkpt lat="43.8786955" lon="11.1723107"><ele>92.0</ele><time>2026-04-11T15:29:45.071Z</time></trkpt><trkpt lat="43.8786285" lon="11.1721951"><ele>92.0</ele><time>2026-04-11T15:29:47.071Z</time></trkpt><trkpt lat="43.8785854" lon="11.172121"><ele>92.0</ele><time>2026-04-11T15:29:48.071Z</time></trkpt><trkpt lat="43.8784971" lon="11.1719473"><ele>91.83333333333334</ele><time>2026-04-11T15:29:50.071Z</time></trkpt><trkpt lat="43.8784496" lon="11.171862"><ele>91.66666666666667</ele><time>2026-04-11T15:29:51.071Z</time></trkpt><trkpt lat="43.8784055" lon="11.1717684"><ele>91.5</ele><time>2026-04-11T15:29:52.071Z</time></trkpt><trkpt lat="43.8783587" lon="11.1716838"><ele>91.33333333333333</ele><time>2026-04-11T15:29:53.071Z</time></trkpt><trkpt lat="43.8783146" lon="11.1716035"><ele>91.16666666666666</ele><time>2026-04-11T15:29:54.071Z</time></trkpt><trkpt lat="43.8782692" lon="11.1715178"><ele>91.0</ele><time>2026-04-11T15:29:55.071Z</time></trkpt><trkpt lat="43.8782262" lon="11.1714262"><ele>92.33333333333333</ele><time>2026-04-11T15:29:56.071Z</time></trkpt><trkpt lat="43.8781763" lon="11.1713367"><ele>93.66666666666666</ele><time>2026-04-11T15:29:57.071Z</time></trkpt><trkpt lat="43.8781399" lon="11.1712513"><ele>95.0</ele><time>2026-04-11T15:29:58.071Z</time></trkpt><trkpt lat="43.8780864" lon="11.1711416"><ele>96.33333333333333</ele><time>2026-04-11T15:29:59.071Z</time></trkpt><trkpt lat="43.8780365" lon="11.1710543"><ele>97.66666666666667</ele><time>2026-04-11T15:30:00.07Z</time></trkpt><trkpt lat="43.8779935" lon="11.1709725"><ele>99.0</ele><time>2026-04-11T15:30:01.071Z</time></trkpt><trkpt lat="43.8779487" lon="11.1708862"><ele>99.0</ele><time>2026-04-11T15:30:02.071Z</time></trkpt><trkpt lat="43.877902" lon="11.170797"><ele>99.0</ele><time>2026-04-11T15:30:03.071Z</time></trkpt><trkpt lat="43.8778546" lon="11.170714"><ele>99.0</ele><time>2026-04-11T15:30:04.071Z</time></trkpt><trkpt lat="43.8778078" lon="11.1706335"><ele>99.0</ele><time>2026-04-11T15:30:05.071Z</time></trkpt><trkpt lat="43.8777633" lon="11.1705589"><ele>99.0</ele><time>2026-04-11T15:30:06.071Z</time></trkpt><trkpt lat="43.8777324" lon="11.170482"><ele>99.0</ele><time>2026-04-11T15:30:07.07Z</time></trkpt><trkpt lat="43.8776817" lon="11.1703627"><ele>97.6</ele><time>2026-04-11T15:30:09.071Z</time></trkpt><trkpt lat="43.8776171" lon="11.1702391"><ele>96.2</ele><time>2026-04-11T15:30:11.071Z</time></trkpt><trkpt lat="43.8775813" lon="11.1701635"><ele>94.8</ele><time>2026-04-11T15:30:12.071Z</time></trkpt><trkpt lat="43.8775383" lon="11.1700857"><ele>93.39999999999999</ele><time>2026-04-11T15:30:13.071Z</time></trkpt><trkpt lat="43.8774851" lon="11.1699283"><ele>92.0</ele><time>2026-04-11T15:30:15.071Z</time></trkpt><trkpt lat="43.8774346" lon="11.1698028"><ele>92.0</ele><time>2026-04-11T15:30:17.071Z</time></trkpt><trkpt lat="43.8773869" lon="11.1696422"><ele>92.0</ele><time>2026-04-11T15:30:19.071Z</time></trkpt><trkpt lat="43.8773498" lon="11.1694464"><ele>92.0</ele><time>2026-04-11T15:30:21.071Z</time></trkpt><trkpt lat="43.8773204" lon="11.1693392"><ele>92.0</ele><time>2026-04-11T15:30:22.071Z</time></trkpt><trkpt lat="43.8773049" lon="11.1692256"><ele>92.0</ele><time>2026-04-11T15:30:23.071Z</time></trkpt><trkpt lat="43.8772871" lon="11.1691104"><ele>93.16666666666667</ele><time>2026-04-11T15:30:24.071Z</time></trkpt><trkpt lat="43.8772762" lon="11.1689956"><ele>94.33333333333334</ele><time>2026-04-11T15:30:25.071Z</time></trkpt><trkpt lat="43.877248" lon="11.1688979"><ele>95.5</ele><time>2026-04-11T15:30:26.071Z</time></trkpt><trkpt lat="43.87724" lon="11.1687758"><ele>96.66666666666667</ele><time>2026-04-11T15:30:27.071Z</time></trkpt><trkpt lat="43.8772234" lon="11.1686637"><ele>97.83333333333333</ele><time>2026-04-11T15:30:28.071Z</time></trkpt><trkpt lat="43.8772169" lon="11.1685546"><ele>99.0</ele><time>2026-04-11T15:30:29.071Z</time></trkpt><trkpt lat="43.8772049" lon="11.168458"><ele>99.0</ele><time>2026-04-11T15:30:30.071Z</time></trkpt><trkpt lat="43.8772007" lon="11.1683643"><ele>99.0</ele><time>2026-04-11T15:30:31.07Z</time></trkpt><trkpt lat="43.8771979" lon="11.1682719"><ele>99.0</ele><time>2026-04-11T15:30:32.071Z</time></trkpt><trkpt lat="43.8771988" lon="11.1681534"><ele>99.0</ele><time>2026-04-11T15:30:33.071Z</time></trkpt><trkpt lat="43.8771995" lon="11.168039"><ele>99.0</ele><time>2026-04-11T15:30:34.071Z</time></trkpt><trkpt lat="43.8772012" lon="11.167926"><ele>99.0</ele><time>2026-04-11T15:30:35.071Z</time></trkpt><trkpt lat="43.8772025" lon="11.1678148"><ele>100.2</ele><time>2026-04-11T15:30:36.071Z</time></trkpt><trkpt lat="43.877178" lon="11.1676988"><ele>101.4</ele><time>2026-04-11T15:30:37.071Z</time></trkpt><trkpt lat="43.8772151" lon="11.1675599"><ele>102.6</ele><time>2026-04-11T15:30:39.071Z</time></trkpt><trkpt lat="43.8772156" lon="11.1674201"><ele>103.8</ele><time>2026-04-11T15:30:41.071Z</time></trkpt><trkpt lat="43.877203" lon="11.1672928"><ele>105.0</ele><time>2026-04-11T15:30:43.071Z</time></trkpt><trkpt lat="43.8772016" lon="11.1671309"><ele>105.33333333333333</ele><time>2026-04-11T15:30:45.071Z</time></trkpt><trkpt lat="43.8772158" lon="11.1670363"><ele>105.66666666666666</ele><time>2026-04-11T15:30:47.071Z</time></trkpt><trkpt lat="43.8772154" lon="11.1669368"><ele>106.0</ele><time>2026-04-11T15:30:48.07Z</time></trkpt><trkpt lat="43.8772123" lon="11.1667455"><ele>106.33333333333333</ele><time>2026-04-11T15:30:50.071Z</time></trkpt><trkpt lat="43.877209" lon="11.1666386"><ele>106.66666666666666</ele><time>2026-04-11T15:30:51.071Z</time></trkpt><trkpt lat="43.8772118" lon="11.1665372"><ele>107.0</ele><time>2026-04-11T15:30:52.071Z</time></trkpt><trkpt lat="43.8772175" lon="11.166439"><ele>106.28571428571429</ele><time>2026-04-11T15:30:53.071Z</time></trkpt><trkpt lat="43.8772189" lon="11.1663434"><ele>105.57142857142857</ele><time>2026-04-11T15:30:54.071Z</time></trkpt><trkpt lat="43.8772207" lon="11.1662348"><ele>104.85714285714286</ele><time>2026-04-11T15:30:55.071Z</time></trkpt><trkpt lat="43.8772228" lon="11.1661405"><ele>104.14285714285714</ele><time>2026-04-11T15:30:56.071Z</time></trkpt><trkpt lat="43.8772268" lon="11.1660344"><ele>103.42857142857143</ele><time>2026-04-11T15:30:57.071Z</time></trkpt><trkpt lat="43.8772283" lon="11.1659236"><ele>102.71428571428572</ele><time>2026-04-11T15:30:58.071Z</time></trkpt><trkpt lat="43.8772268" lon="11.1658276"><ele>102.0</ele><time>2026-04-11T15:30:59.071Z</time></trkpt><trkpt lat="43.8772385" lon="11.1657302"><ele>102.0</ele><time>2026-04-11T15:31:00.071Z</time></trkpt><trkpt lat="43.8772596" lon="11.1656395"><ele>102.0</ele><time>2026-04-11T15:31:01.071Z</time></trkpt><trkpt lat="43.8772853" lon="11.1655583"><ele>102.0</ele><time>2026-04-11T15:31:02.071Z</time></trkpt><trkpt lat="43.8773139" lon="11.1654007"><ele>102.0</ele><time>2026-04-11T15:31:04.071Z</time></trkpt><trkpt lat="43.8773253" lon="11.1652931"><ele>102.0</ele><time>2026-04-11T15:31:06.071Z</time></trkpt><trkpt lat="43.8773275" lon="11.1651832"><ele>102.0</ele><time>2026-04-11T15:31:21.071Z</time></trkpt><trkpt lat="43.8773143" lon="11.1650845"><ele>102.0</ele><time>2026-04-11T15:31:24.071Z</time></trkpt><trkpt lat="43.8772879" lon="11.1649898"><ele>102.0</ele><time>2026-04-11T15:31:27.071Z</time></trkpt><trkpt lat="43.8772375" lon="11.1648811"><ele>102.0</ele><time>2026-04-11T15:31:29.071Z</time></trkpt><trkpt lat="43.8772111" lon="11.1647976"><ele>102.0</ele><time>2026-04-11T15:31:30.071Z</time></trkpt><trkpt lat="43.877157" lon="11.1646333"><ele>102.0</ele><time>2026-04-11T15:31:32.071Z</time></trkpt><trkpt lat="43.8771352" lon="11.1645478"><ele>102.0</ele><time>2026-04-11T15:31:33.071Z</time></trkpt><trkpt lat="43.8771169" lon="11.1644536"><ele>103.33333333333333</ele><time>2026-04-11T15:31:34.071Z</time></trkpt><trkpt lat="43.8770969" lon="11.1643565"><ele>104.66666666666666</ele><time>2026-04-11T15:31:35.071Z</time></trkpt><trkpt lat="43.8770764" lon="11.1642464"><ele>106.0</ele><time>2026-04-11T15:31:36.071Z</time></trkpt><trkpt lat="43.8770569" lon="11.164142"><ele>107.33333333333333</ele><time>2026-04-11T15:31:37.071Z</time></trkpt><trkpt lat="43.8770306" lon="11.1639743"><ele>108.66666666666666</ele><time>2026-04-11T15:31:39.07Z</time></trkpt><trkpt lat="43.8770104" lon="11.1638753"><ele>110.0</ele><time>2026-04-11T15:31:40.071Z</time></trkpt><trkpt lat="43.8769909" lon="11.1637818"><ele>111.49999999999999</ele><time>2026-04-11T15:31:41.071Z</time></trkpt><trkpt lat="43.8769781" lon="11.1636683"><ele>113.0</ele><time>2026-04-11T15:31:42.071Z</time></trkpt><trkpt lat="43.8769686" lon="11.1635512"><ele>114.5</ele><time>2026-04-11T15:31:43.071Z</time></trkpt><trkpt lat="43.8769609" lon="11.1634378"><ele>116.0</ele><time>2026-04-11T15:31:44.071Z</time></trkpt><trkpt lat="43.8769516" lon="11.1633196"><ele>117.49999999999999</ele><time>2026-04-11T15:31:45.071Z</time></trkpt><trkpt lat="43.8769464" lon="11.1632036"><ele>119.0</ele><time>2026-04-11T15:31:46.071Z</time></trkpt><trkpt lat="43.8769444" lon="11.1630941"><ele>118.99999999999999</ele><time>2026-04-11T15:31:47.071Z</time></trkpt><trkpt lat="43.8769471" lon="11.1629841"><ele>119.0</ele><time>2026-04-11T15:31:48.071Z</time></trkpt><trkpt lat="43.8769345" lon="11.1628682"><ele>119.0</ele><time>2026-04-11T15:31:49.071Z</time></trkpt><trkpt lat="43.8769197" lon="11.1627483"><ele>119.0</ele><time>2026-04-11T15:31:50.071Z</time></trkpt><trkpt lat="43.8769087" lon="11.1626293"><ele>118.99999999999999</ele><time>2026-04-11T15:31:51.071Z</time></trkpt><trkpt lat="43.8769081" lon="11.1624995"><ele>119.0</ele><time>2026-04-11T15:31:52.071Z</time></trkpt><trkpt lat="43.8769152" lon="11.162368"><ele>117.33333333333333</ele><time>2026-04-11T15:31:53.071Z</time></trkpt><trkpt lat="43.876923" lon="11.16224"><ele>115.66666666666666</ele><time>2026-04-11T15:31:54.07Z</time></trkpt><trkpt lat="43.8769302" lon="11.1621227"><ele>114.0</ele><time>2026-04-11T15:31:55.071Z</time></trkpt><trkpt lat="43.8769554" lon="11.1620184"><ele>112.33333333333334</ele><time>2026-04-11T15:31:56.071Z</time></trkpt><trkpt lat="43.8769833" lon="11.161916"><ele>110.66666666666667</ele><time>2026-04-11T15:31:57.071Z</time></trkpt><trkpt lat="43.877008" lon="11.1618111"><ele>109.0</ele><time>2026-04-11T15:31:58.071Z</time></trkpt><trkpt lat="43.8770339" lon="11.1617254"><ele>109.00000000000001</ele><time>2026-04-11T15:31:59.071Z</time></trkpt><trkpt lat="43.8770732" lon="11.1615876"><ele>109.0</ele><time>2026-04-11T15:32:01.071Z</time></trkpt><trkpt lat="43.877091" lon="11.1614798"><ele>109.0</ele><time>2026-04-11T15:32:03.071Z</time></trkpt><trkpt lat="43.8771015" lon="11.1613499"><ele>109.0</ele><time>2026-04-11T15:32:06.071Z</time></trkpt><trkpt lat="43.8771319" lon="11.161261"><ele>109.00000000000001</ele><time>2026-04-11T15:32:08.071Z</time></trkpt><trkpt lat="43.8771677" lon="11.1611855"><ele>109.0</ele><time>2026-04-11T15:32:10.071Z</time></trkpt><trkpt lat="43.8771767" lon="11.1610603"><ele>106.66666666666667</ele><time>2026-04-11T15:32:13.071Z</time></trkpt><trkpt lat="43.8771976" lon="11.1609383"><ele>104.33333333333334</ele><time>2026-04-11T15:32:16.071Z</time></trkpt><trkpt lat="43.8771484" lon="11.1608713"><ele>102.0</ele><time>2026-04-11T15:32:43.071Z</time></trkpt><trkpt lat="43.8771631" lon="11.1607305"><ele>99.66666666666667</ele><time>2026-04-11T15:32:46.071Z</time></trkpt><trkpt lat="43.8771994" lon="11.1606577"><ele>97.33333333333334</ele><time>2026-04-11T15:32:47.071Z</time></trkpt><trkpt lat="43.877245" lon="11.1605614"><ele>95.0</ele><time>2026-04-11T15:32:48.071Z</time></trkpt><trkpt lat="43.8772904" lon="11.1604521"><ele>91.8</ele><time>2026-04-11T15:32:49.071Z</time></trkpt><trkpt lat="43.877342" lon="11.1603297"><ele>88.6</ele><time>2026-04-11T15:32:50.071Z</time></trkpt><trkpt lat="43.8773946" lon="11.1602048"><ele>85.4</ele><time>2026-04-11T15:32:51.071Z</time></trkpt><trkpt lat="43.8774479" lon="11.1600845"><ele>82.2</ele><time>2026-04-11T15:32:52.071Z</time></trkpt><trkpt lat="43.8774951" lon="11.1599754"><ele>79.0</ele><time>2026-04-11T15:32:53.071Z</time></trkpt><trkpt lat="43.8775265" lon="11.1598668"><ele>77.66666666666666</ele><time>2026-04-11T15:32:54.071Z</time></trkpt><trkpt lat="43.8775328" lon="11.159763"><ele>76.33333333333333</ele><time>2026-04-11T15:32:55.071Z</time></trkpt><trkpt lat="43.8775166" lon="11.1596664"><ele>75.0</ele><time>2026-04-11T15:32:56.071Z</time></trkpt><trkpt lat="43.8774953" lon="11.1595731"><ele>73.66666666666667</ele><time>2026-04-11T15:32:57.071Z</time></trkpt><trkpt lat="43.8774793" lon="11.1594826"><ele>72.33333333333334</ele><time>2026-04-11T15:32:58.071Z</time></trkpt><trkpt lat="43.87747" lon="11.1593243"><ele>71.0</ele><time>2026-04-11T15:33:00.071Z</time></trkpt><trkpt lat="43.8774673" lon="11.1592196"><ele>71.0</ele><time>2026-04-11T15:33:02.071Z</time></trkpt><trkpt lat="43.8774684" lon="11.1591289"><ele>71.0</ele><time>2026-04-11T15:33:05.071Z</time></trkpt><trkpt lat="43.8774644" lon="11.1590072"><ele>71.0</ele><time>2026-04-11T15:33:07.071Z</time></trkpt><trkpt lat="43.8774557" lon="11.1589155"><ele>71.0</ele><time>2026-04-11T15:33:08.071Z</time></trkpt><trkpt lat="43.8774335" lon="11.1588074"><ele>71.0</ele><time>2026-04-11T15:33:09.071Z</time></trkpt><trkpt lat="43.8774114" lon="11.1587032"><ele>71.0</ele><time>2026-04-11T15:33:10.071Z</time></trkpt><trkpt lat="43.8773869" lon="11.158617"><ele>71.0</ele><time>2026-04-11T15:33:11.071Z</time></trkpt><trkpt lat="43.8773461" lon="11.1585396"><ele>70.66666666666667</ele><time>2026-04-11T15:33:12.071Z</time></trkpt><trkpt lat="43.8772522" lon="11.1584285"><ele>70.33333333333334</ele><time>2026-04-11T15:33:14.071Z</time></trkpt><trkpt lat="43.8771988" lon="11.1583617"><ele>70.0</ele><time>2026-04-11T15:33:15.071Z</time></trkpt><trkpt lat="43.8771576" lon="11.1582817"><ele>69.66666666666667</ele><time>2026-04-11T15:33:16.071Z</time></trkpt><trkpt lat="43.8771347" lon="11.1581838"><ele>69.33333333333333</ele><time>2026-04-11T15:33:17.07Z</time></trkpt><trkpt lat="43.8771281" lon="11.1580766"><ele>69.0</ele><time>2026-04-11T15:33:18.07Z</time></trkpt><trkpt lat="43.8771239" lon="11.1579776"><ele>69.0</ele><time>2026-04-11T15:33:19.071Z</time></trkpt><trkpt lat="43.877127" lon="11.1578765"><ele>69.0</ele><time>2026-04-11T15:33:20.071Z</time></trkpt><trkpt lat="43.8771278" lon="11.1577752"><ele>69.0</ele><time>2026-04-11T15:33:21.071Z</time></trkpt><trkpt lat="43.8771365" lon="11.1576626"><ele>69.0</ele><time>2026-04-11T15:33:22.071Z</time></trkpt><trkpt lat="43.8771492" lon="11.157538"><ele>69.0</ele><time>2026-04-11T15:33:23.071Z</time></trkpt><trkpt lat="43.8771598" lon="11.157403"><ele>69.0</ele><time>2026-04-11T15:33:24.071Z</time></trkpt><trkpt lat="43.8771725" lon="11.1572487"><ele>69.0</ele><time>2026-04-11T15:33:25.071Z</time></trkpt><trkpt lat="43.8771858" lon="11.1571116"><ele>69.0</ele><time>2026-04-11T15:33:26.071Z</time></trkpt><trkpt lat="43.8772111" lon="11.1569932"><ele>69.0</ele><time>2026-04-11T15:33:27.071Z</time></trkpt><trkpt lat="43.8772424" lon="11.1568768"><ele>69.0</ele><time>2026-04-11T15:33:28.071Z</time></trkpt><trkpt lat="43.8772719" lon="11.1567487"><ele>69.0</ele><time>2026-04-11T15:33:29.071Z</time></trkpt><trkpt lat="43.877295" lon="11.156632"><ele>70.0</ele><time>2026-04-11T15:33:30.071Z</time></trkpt><trkpt lat="43.8773138" lon="11.1565309"><ele>71.0</ele><time>2026-04-11T15:33:31.071Z</time></trkpt><trkpt lat="43.8773317" lon="11.1564223"><ele>72.0</ele><time>2026-04-11T15:33:32.071Z</time></trkpt><trkpt lat="43.8773469" lon="11.1563105"><ele>73.0</ele><time>2026-04-11T15:33:33.071Z</time></trkpt><trkpt lat="43.8773444" lon="11.1562105"><ele>74.0</ele><time>2026-04-11T15:33:34.071Z</time></trkpt><trkpt lat="43.8773159" lon="11.1561311"><ele>75.0</ele><time>2026-04-11T15:33:35.071Z</time></trkpt><trkpt lat="43.8771862" lon="11.1560859"><ele>75.0</ele><time>2026-04-11T15:33:37.071Z</time></trkpt><trkpt lat="43.8771008" lon="11.1560924"><ele>75.0</ele><time>2026-04-11T15:33:38.07Z</time></trkpt><trkpt lat="43.8770203" lon="11.1560959"><ele>75.0</ele><time>2026-04-11T15:33:39.071Z</time></trkpt><trkpt lat="43.8769319" lon="11.1560932"><ele>75.0</ele><time>2026-04-11T15:33:40.071Z</time></trkpt><trkpt lat="43.8768521" lon="11.1560848"><ele>75.0</ele><time>2026-04-11T15:33:41.071Z</time></trkpt><trkpt lat="43.8767722" lon="11.1560797"><ele>75.0</ele><time>2026-04-11T15:33:42.071Z</time></trkpt><trkpt lat="43.8767018" lon="11.1560662"><ele>74.85714285714285</ele><time>2026-04-11T15:33:43.071Z</time></trkpt><trkpt lat="43.8766391" lon="11.156053"><ele>74.71428571428571</ele><time>2026-04-11T15:33:44.071Z</time></trkpt><trkpt lat="43.8765757" lon="11.1560358"><ele>74.57142857142857</ele><time>2026-04-11T15:33:45.071Z</time></trkpt><trkpt lat="43.876512" lon="11.1560207"><ele>74.42857142857142</ele><time>2026-04-11T15:33:46.071Z</time></trkpt><trkpt lat="43.8764464" lon="11.1560114"><ele>74.28571428571428</ele><time>2026-04-11T15:33:47.071Z</time></trkpt><trkpt lat="43.8763374" lon="11.1559797"><ele>74.14285714285714</ele><time>2026-04-11T15:33:49.071Z</time></trkpt><trkpt lat="43.8763148" lon="11.155886"><ele>74.0</ele><time>2026-04-11T15:33:51.071Z</time></trkpt><trkpt lat="43.876342" lon="11.1557517"><ele>77.80000000000001</ele><time>2026-04-11T15:33:53.071Z</time></trkpt><trkpt lat="43.8763802" lon="11.1556173"><ele>81.60000000000001</ele><time>2026-04-11T15:33:55.071Z</time></trkpt><trkpt lat="43.8763794" lon="11.155477"><ele>85.4</ele><time>2026-04-11T15:33:57.071Z</time></trkpt><trkpt lat="43.8762876" lon="11.1553907"><ele>89.2</ele><time>2026-04-11T15:33:59.071Z</time></trkpt><trkpt lat="43.876174" lon="11.1553461"><ele>93.0</ele><time>2026-04-11T15:34:01.071Z</time></trkpt><trkpt lat="43.8761104" lon="11.1553267"><ele>93.0</ele><time>2026-04-11T15:34:02.071Z</time></trkpt><trkpt lat="43.876035" lon="11.1553002"><ele>93.0</ele><time>2026-04-11T15:34:03.071Z</time></trkpt><trkpt lat="43.8759665" lon="11.155278"><ele>93.0</ele><time>2026-04-11T15:34:04.071Z</time></trkpt><trkpt lat="43.8758996" lon="11.1552548"><ele>93.0</ele><time>2026-04-11T15:34:05.071Z</time></trkpt><trkpt lat="43.8758162" lon="11.1552283"><ele>93.0</ele><time>2026-04-11T15:34:06.071Z</time></trkpt><trkpt lat="43.8757209" lon="11.155201"><ele>93.0</ele><time>2026-04-11T15:34:07.071Z</time></trkpt><trkpt lat="43.8756333" lon="11.1551785"><ele>91.33333333333333</ele><time>2026-04-11T15:34:08.07Z</time></trkpt><trkpt lat="43.8755523" lon="11.1551582"><ele>89.66666666666667</ele><time>2026-04-11T15:34:09.071Z</time></trkpt><trkpt lat="43.8754749" lon="11.1551404"><ele>88.0</ele><time>2026-04-11T15:34:10.071Z</time></trkpt><trkpt lat="43.875396" lon="11.1551237"><ele>86.33333333333334</ele><time>2026-04-11T15:34:11.071Z</time></trkpt><trkpt lat="43.8753113" lon="11.155106"><ele>84.66666666666667</ele><time>2026-04-11T15:34:12.071Z</time></trkpt><trkpt lat="43.875233" lon="11.155093"><ele>83.0</ele><time>2026-04-11T15:34:13.071Z</time></trkpt><trkpt lat="43.8751494" lon="11.1550799"><ele>81.2</ele><time>2026-04-11T15:34:14.071Z</time></trkpt><trkpt lat="43.8750574" lon="11.155064"><ele>79.4</ele><time>2026-04-11T15:34:15.071Z</time></trkpt><trkpt lat="43.8749609" lon="11.155042"><ele>77.60000000000001</ele><time>2026-04-11T15:34:16.07Z</time></trkpt><trkpt lat="43.8748681" lon="11.155017"><ele>75.80000000000001</ele><time>2026-04-11T15:34:17.071Z</time></trkpt><trkpt lat="43.8747793" lon="11.1549896"><ele>74.0</ele><time>2026-04-11T15:34:18.071Z</time></trkpt><trkpt lat="43.8746857" lon="11.1549613"><ele>74.0</ele><time>2026-04-11T15:34:19.071Z</time></trkpt><trkpt lat="43.8745893" lon="11.1549259"><ele>74.0</ele><time>2026-04-11T15:34:20.071Z</time></trkpt><trkpt lat="43.8744934" lon="11.1548912"><ele>74.0</ele><time>2026-04-11T15:34:21.071Z</time></trkpt><trkpt lat="43.8744004" lon="11.1548509"><ele>74.0</ele><time>2026-04-11T15:34:22.071Z</time></trkpt><trkpt lat="43.8743065" lon="11.1548109"><ele>74.0</ele><time>2026-04-11T15:34:23.071Z</time></trkpt><trkpt lat="43.8742152" lon="11.1547734"><ele>76.2</ele><time>2026-04-11T15:34:24.071Z</time></trkpt><trkpt lat="43.874126" lon="11.154738"><ele>78.4</ele><time>2026-04-11T15:34:25.071Z</time></trkpt><trkpt lat="43.874033" lon="11.1547002"><ele>80.6</ele><time>2026-04-11T15:34:26.071Z</time></trkpt><trkpt lat="43.8739425" lon="11.154661"><ele>82.8</ele><time>2026-04-11T15:34:27.07Z</time></trkpt><trkpt lat="43.8738526" lon="11.1546218"><ele>85.0</ele><time>2026-04-11T15:34:28.071Z</time></trkpt><trkpt lat="43.8737529" lon="11.1545807"><ele>85.0</ele><time>2026-04-11T15:34:29.07Z</time></trkpt><trkpt lat="43.8736553" lon="11.1545435"><ele>85.0</ele><time>2026-04-11T15:34:30.071Z</time></trkpt><trkpt lat="43.873569" lon="11.1545074"><ele>85.0</ele><time>2026-04-11T15:34:31.071Z</time></trkpt><trkpt lat="43.873486" lon="11.1544673"><ele>85.0</ele><time>2026-04-11T15:34:32.071Z</time></trkpt><trkpt lat="43.8734012" lon="11.1544238"><ele>85.0</ele><time>2026-04-11T15:34:33.071Z</time></trkpt><trkpt lat="43.8733196" lon="11.154384"><ele>84.83333333333333</ele><time>2026-04-11T15:34:34.07Z</time></trkpt><trkpt lat="43.8732487" lon="11.1543415"><ele>84.66666666666666</ele><time>2026-04-11T15:34:35.071Z</time></trkpt><trkpt lat="43.8731721" lon="11.1542834"><ele>84.5</ele><time>2026-04-11T15:34:36.071Z</time></trkpt><trkpt lat="43.8730987" lon="11.1542155"><ele>84.33333333333333</ele><time>2026-04-11T15:34:37.071Z</time></trkpt><trkpt lat="43.8730268" lon="11.1541399"><ele>84.16666666666667</ele><time>2026-04-11T15:34:38.071Z</time></trkpt><trkpt lat="43.87296" lon="11.154054"><ele>84.0</ele><time>2026-04-11T15:34:39.071Z</time></trkpt><trkpt lat="43.8728946" lon="11.1539422"><ele>84.0</ele><time>2026-04-11T15:34:40.071Z</time></trkpt><trkpt lat="43.872844" lon="11.1538357"><ele>84.0</ele><time>2026-04-11T15:34:41.071Z</time></trkpt><trkpt lat="43.8727927" lon="11.1537211"><ele>84.0</ele><time>2026-04-11T15:34:42.07Z</time></trkpt><trkpt lat="43.8727442" lon="11.1536113"><ele>84.0</ele><time>2026-04-11T15:34:43.071Z</time></trkpt><trkpt lat="43.872693" lon="11.1534968"><ele>84.0</ele><time>2026-04-11T15:34:44.071Z</time></trkpt><trkpt lat="43.872641" lon="11.1533794"><ele>82.0</ele><time>2026-04-11T15:34:45.071Z</time></trkpt><trkpt lat="43.8725957" lon="11.1532761"><ele>80.0</ele><time>2026-04-11T15:34:46.071Z</time></trkpt><trkpt lat="43.8725482" lon="11.15317"><ele>78.0</ele><time>2026-04-11T15:34:47.071Z</time></trkpt><trkpt lat="43.8724985" lon="11.1530608"><ele>76.0</ele><time>2026-04-11T15:34:48.071Z</time></trkpt><trkpt lat="43.8724526" lon="11.1529604"><ele>74.0</ele><time>2026-04-11T15:34:49.071Z</time></trkpt><trkpt lat="43.8724081" lon="11.1528565"><ele>72.0</ele><time>2026-04-11T15:34:50.071Z</time></trkpt><trkpt lat="43.8723659" lon="11.1527479"><ele>72.0</ele><time>2026-04-11T15:34:51.071Z</time></trkpt><trkpt lat="43.8723268" lon="11.152626"><ele>72.0</ele><time>2026-04-11T15:34:52.071Z</time></trkpt><trkpt lat="43.8722925" lon="11.1524949"><ele>72.0</ele><time>2026-04-11T15:34:53.07Z</time></trkpt><trkpt lat="43.8722597" lon="11.152357"><ele>72.0</ele><time>2026-04-11T15:34:54.071Z</time></trkpt><trkpt lat="43.872223" lon="11.1522138"><ele>72.0</ele><time>2026-04-11T15:34:55.071Z</time></trkpt><trkpt lat="43.8721877" lon="11.152077"><ele>73.4</ele><time>2026-04-11T15:34:56.071Z</time></trkpt><trkpt lat="43.8721503" lon="11.1519468"><ele>74.80000000000001</ele><time>2026-04-11T15:34:57.071Z</time></trkpt><trkpt lat="43.8721072" lon="11.1518291"><ele>76.2</ele><time>2026-04-11T15:34:58.071Z</time></trkpt><trkpt lat="43.872057" lon="11.151716"><ele>77.60000000000001</ele><time>2026-04-11T15:34:59.071Z</time></trkpt><trkpt lat="43.8720016" lon="11.1516076"><ele>79.0</ele><time>2026-04-11T15:35:00.071Z</time></trkpt><trkpt lat="43.8719416" lon="11.151493"><ele>77.4</ele><time>2026-04-11T15:35:01.071Z</time></trkpt><trkpt lat="43.8718742" lon="11.1513724"><ele>75.80000000000001</ele><time>2026-04-11T15:35:02.07Z</time></trkpt><trkpt lat="43.8718086" lon="11.15125"><ele>74.19999999999999</ele><time>2026-04-11T15:35:03.071Z</time></trkpt><trkpt lat="43.8717513" lon="11.1511388"><ele>72.6</ele><time>2026-04-11T15:35:04.071Z</time></trkpt><trkpt lat="43.8716905" lon="11.1510225"><ele>71.0</ele><time>2026-04-11T15:35:05.071Z</time></trkpt><trkpt lat="43.8716287" lon="11.1509116"><ele>71.0</ele><time>2026-04-11T15:35:06.071Z</time></trkpt><trkpt lat="43.8715624" lon="11.1508096"><ele>71.0</ele><time>2026-04-11T15:35:07.071Z</time></trkpt><trkpt lat="43.8715062" lon="11.150719"><ele>71.0</ele><time>2026-04-11T15:35:08.071Z</time></trkpt><trkpt lat="43.8714516" lon="11.1506311"><ele>71.0</ele><time>2026-04-11T15:35:09.071Z</time></trkpt><trkpt lat="43.8713937" lon="11.1505438"><ele>71.0</ele><time>2026-04-11T15:35:10.071Z</time></trkpt><trkpt lat="43.8713367" lon="11.1504635"><ele>71.0</ele><time>2026-04-11T15:35:11.071Z</time></trkpt><trkpt lat="43.8712829" lon="11.1503891"><ele>70.16666666666667</ele><time>2026-04-11T15:35:12.07Z</time></trkpt><trkpt lat="43.8712306" lon="11.1503162"><ele>69.33333333333334</ele><time>2026-04-11T15:35:13.071Z</time></trkpt><trkpt lat="43.8711782" lon="11.1502451"><ele>68.5</ele><time>2026-04-11T15:35:14.071Z</time></trkpt><trkpt lat="43.8711255" lon="11.1501736"><ele>67.66666666666667</ele><time>2026-04-11T15:35:15.07Z</time></trkpt><trkpt lat="43.8710673" lon="11.1500971"><ele>66.83333333333333</ele><time>2026-04-11T15:35:16.071Z</time></trkpt><trkpt lat="43.8709992" lon="11.1500141"><ele>66.0</ele><time>2026-04-11T15:35:17.071Z</time></trkpt><trkpt lat="43.8709296" lon="11.1499356"><ele>67.0</ele><time>2026-04-11T15:35:18.071Z</time></trkpt><trkpt lat="43.8708679" lon="11.1498665"><ele>68.0</ele><time>2026-04-11T15:35:19.071Z</time></trkpt><trkpt lat="43.8708057" lon="11.1497915"><ele>69.0</ele><time>2026-04-11T15:35:20.071Z</time></trkpt><trkpt lat="43.8707469" lon="11.1497158"><ele>70.0</ele><time>2026-04-11T15:35:21.071Z</time></trkpt><trkpt lat="43.8706824" lon="11.1496341"><ele>71.0</ele><time>2026-04-11T15:35:22.071Z</time></trkpt><trkpt lat="43.870614" lon="11.1495451"><ele>72.0</ele><time>2026-04-11T15:35:23.071Z</time></trkpt><trkpt lat="43.8705416" lon="11.1494484"><ele>72.0</ele><time>2026-04-11T15:35:24.071Z</time></trkpt><trkpt lat="43.8704695" lon="11.1493432"><ele>72.0</ele><time>2026-04-11T15:35:25.07Z</time></trkpt><trkpt lat="43.8704014" lon="11.1492487"><ele>72.0</ele><time>2026-04-11T15:35:26.071Z</time></trkpt><trkpt lat="43.8703377" lon="11.1491567"><ele>72.0</ele><time>2026-04-11T15:35:27.07Z</time></trkpt><trkpt lat="43.870274" lon="11.1490573"><ele>72.0</ele><time>2026-04-11T15:35:28.071Z</time></trkpt><trkpt lat="43.8702093" lon="11.1489559"><ele>71.0</ele><time>2026-04-11T15:35:29.07Z</time></trkpt><trkpt lat="43.870145" lon="11.1488531"><ele>70.0</ele><time>2026-04-11T15:35:30.071Z</time></trkpt><trkpt lat="43.8700812" lon="11.1487479"><ele>69.0</ele><time>2026-04-11T15:35:31.07Z</time></trkpt><trkpt lat="43.870013" lon="11.1486411"><ele>68.0</ele><time>2026-04-11T15:35:32.071Z</time></trkpt><trkpt lat="43.8699479" lon="11.1485377"><ele>67.0</ele><time>2026-04-11T15:35:33.071Z</time></trkpt><trkpt lat="43.8698863" lon="11.1484416"><ele>67.0</ele><time>2026-04-11T15:35:34.071Z</time></trkpt><trkpt lat="43.8698277" lon="11.1483316"><ele>67.0</ele><time>2026-04-11T15:35:35.071Z</time></trkpt><trkpt lat="43.869779" lon="11.1482183"><ele>67.0</ele><time>2026-04-11T15:35:36.071Z</time></trkpt><trkpt lat="43.8697421" lon="11.1481048"><ele>67.0</ele><time>2026-04-11T15:35:37.071Z</time></trkpt><trkpt lat="43.8697131" lon="11.1479923"><ele>67.0</ele><time>2026-04-11T15:35:38.071Z</time></trkpt><trkpt lat="43.8696991" lon="11.1478951"><ele>67.0</ele><time>2026-04-11T15:35:39.071Z</time></trkpt><trkpt lat="43.8696795" lon="11.1478008"><ele>68.5</ele><time>2026-04-11T15:35:40.071Z</time></trkpt><trkpt lat="43.8696358" lon="11.1476846"><ele>70.0</ele><time>2026-04-11T15:35:41.07Z</time></trkpt><trkpt lat="43.8695573" lon="11.1475579"><ele>71.5</ele><time>2026-04-11T15:35:42.07Z</time></trkpt><trkpt lat="43.8694564" lon="11.1474188"><ele>73.0</ele><time>2026-04-11T15:35:43.071Z</time></trkpt><trkpt lat="43.8693409" lon="11.1472816"><ele>70.0</ele><time>2026-04-11T15:35:44.071Z</time></trkpt><trkpt lat="43.8692119" lon="11.1471314"><ele>67.0</ele><time>2026-04-11T15:35:45.071Z</time></trkpt><trkpt lat="43.8691029" lon="11.1469917"><ele>64.0</ele><time>2026-04-11T15:35:46.071Z</time></trkpt><trkpt lat="43.8690041" lon="11.1468547"><ele>64.0</ele><time>2026-04-11T15:35:47.071Z</time></trkpt><trkpt lat="43.8689058" lon="11.1467423"><ele>64.0</ele><time>2026-04-11T15:35:48.071Z</time></trkpt><trkpt lat="43.8688103" lon="11.1466426"><ele>64.0</ele><time>2026-04-11T15:35:49.07Z</time></trkpt><trkpt lat="43.8687194" lon="11.1465311"><ele>64.0</ele><time>2026-04-11T15:35:50.071Z</time></trkpt><trkpt lat="43.8686249" lon="11.1463952"><ele>63.0</ele><time>2026-04-11T15:35:51.071Z</time></trkpt><trkpt lat="43.8685325" lon="11.1462431"><ele>62.0</ele><time>2026-04-11T15:35:52.071Z</time></trkpt><trkpt lat="43.8684532" lon="11.1460852"><ele>61.0</ele><time>2026-04-11T15:35:53.071Z</time></trkpt><trkpt lat="43.8683764" lon="11.145919"><ele>60.0</ele><time>2026-04-11T15:35:54.071Z</time></trkpt><trkpt lat="43.8683035" lon="11.1457597"><ele>61.5</ele><time>2026-04-11T15:35:55.071Z</time></trkpt><trkpt lat="43.8682315" lon="11.1456095"><ele>63.0</ele><time>2026-04-11T15:35:56.071Z</time></trkpt><trkpt lat="43.8681565" lon="11.1454544"><ele>64.5</ele><time>2026-04-11T15:35:57.071Z</time></trkpt><trkpt lat="43.8680773" lon="11.1453031"><ele>66.0</ele><time>2026-04-11T15:35:58.071Z</time></trkpt><trkpt lat="43.8679925" lon="11.1451654"><ele>66.0</ele><time>2026-04-11T15:35:59.071Z</time></trkpt><trkpt lat="43.8679043" lon="11.1450304"><ele>66.0</ele><time>2026-04-11T15:36:00.071Z</time></trkpt><trkpt lat="43.8678181" lon="11.1449042"><ele>66.0</ele><time>2026-04-11T15:36:01.07Z</time></trkpt><trkpt lat="43.8677323" lon="11.1447798"><ele>66.0</ele><time>2026-04-11T15:36:02.071Z</time></trkpt><trkpt lat="43.8676456" lon="11.144651"><ele>66.25</ele><time>2026-04-11T15:36:03.071Z</time></trkpt><trkpt lat="43.8675549" lon="11.1445132"><ele>66.5</ele><time>2026-04-11T15:36:04.071Z</time></trkpt><trkpt lat="43.8674673" lon="11.1443956"><ele>66.75</ele><time>2026-04-11T15:36:05.071Z</time></trkpt><trkpt lat="43.8673652" lon="11.1443072"><ele>67.0</ele><time>2026-04-11T15:36:06.071Z</time></trkpt><trkpt lat="43.8672382" lon="11.1442518"><ele>67.0</ele><time>2026-04-11T15:36:07.071Z</time></trkpt><trkpt lat="43.8670984" lon="11.1442319"><ele>67.0</ele><time>2026-04-11T15:36:08.071Z</time></trkpt><trkpt lat="43.8669547" lon="11.1442236"><ele>67.0</ele><time>2026-04-11T15:36:09.071Z</time></trkpt><trkpt lat="43.8668174" lon="11.1442194"><ele>67.0</ele><time>2026-04-11T15:36:10.071Z</time></trkpt><trkpt lat="43.8666727" lon="11.1442172"><ele>65.25</ele><time>2026-04-11T15:36:11.071Z</time></trkpt><trkpt lat="43.8665305" lon="11.1442136"><ele>63.5</ele><time>2026-04-11T15:36:12.071Z</time></trkpt><trkpt lat="43.8663879" lon="11.1442118"><ele>61.75</ele><time>2026-04-11T15:36:13.071Z</time></trkpt><trkpt lat="43.8662417" lon="11.1442134"><ele>60.0</ele><time>2026-04-11T15:36:14.07Z</time></trkpt><trkpt lat="43.866093" lon="11.1442141"><ele>59.25</ele><time>2026-04-11T15:36:15.071Z</time></trkpt><trkpt lat="43.8659437" lon="11.1442187"><ele>58.5</ele><time>2026-04-11T15:36:16.071Z</time></trkpt><trkpt lat="43.8658073" lon="11.1442275"><ele>57.75</ele><time>2026-04-11T15:36:17.071Z</time></trkpt><trkpt lat="43.8656786" lon="11.1442303"><ele>57.0</ele><time>2026-04-11T15:36:18.071Z</time></trkpt><trkpt lat="43.8655496" lon="11.1442236"><ele>57.0</ele><time>2026-04-11T15:36:19.071Z</time></trkpt><trkpt lat="43.8654155" lon="11.1442115"><ele>57.0</ele><time>2026-04-11T15:36:20.071Z</time></trkpt><trkpt lat="43.8652897" lon="11.1442099"><ele>57.0</ele><time>2026-04-11T15:36:21.071Z</time></trkpt><trkpt lat="43.8651591" lon="11.1442131"><ele>57.0</ele><time>2026-04-11T15:36:22.071Z</time></trkpt><trkpt lat="43.8650264" lon="11.144214"><ele>56.5</ele><time>2026-04-11T15:36:23.071Z</time></trkpt><trkpt lat="43.8648895" lon="11.1442132"><ele>56.0</ele><time>2026-04-11T15:36:24.071Z</time></trkpt><trkpt lat="43.8647407" lon="11.1442086"><ele>55.5</ele><time>2026-04-11T15:36:25.071Z</time></trkpt><trkpt lat="43.8645863" lon="11.1441991"><ele>55.0</ele><time>2026-04-11T15:36:26.071Z</time></trkpt><trkpt lat="43.8644357" lon="11.1441771"><ele>55.0</ele><time>2026-04-11T15:36:27.071Z</time></trkpt><trkpt lat="43.8642882" lon="11.1441384"><ele>55.0</ele><time>2026-04-11T15:36:28.071Z</time></trkpt><trkpt lat="43.8641414" lon="11.1440821"><ele>55.0</ele><time>2026-04-11T15:36:29.071Z</time></trkpt><trkpt lat="43.8640026" lon="11.1440088"><ele>55.25</ele><time>2026-04-11T15:36:30.071Z</time></trkpt><trkpt lat="43.8638797" lon="11.1439272"><ele>55.5</ele><time>2026-04-11T15:36:31.071Z</time></trkpt><trkpt lat="43.863759" lon="11.1438334"><ele>55.75</ele><time>2026-04-11T15:36:32.071Z</time></trkpt><trkpt lat="43.8636407" lon="11.1437235"><ele>56.0</ele><time>2026-04-11T15:36:33.071Z</time></trkpt><trkpt lat="43.8635252" lon="11.1436007"><ele>56.0</ele><time>2026-04-11T15:36:34.071Z</time></trkpt><trkpt lat="43.8634169" lon="11.1434753"><ele>56.0</ele><time>2026-04-11T15:36:35.071Z</time></trkpt><trkpt lat="43.8633222" lon="11.1433477"><ele>56.0</ele><time>2026-04-11T15:36:36.071Z</time></trkpt><trkpt lat="43.8632252" lon="11.143206"><ele>56.0</ele><time>2026-04-11T15:36:37.071Z</time></trkpt><trkpt lat="43.8631263" lon="11.1430654"><ele>56.0</ele><time>2026-04-11T15:36:38.071Z</time></trkpt><trkpt lat="43.8630293" lon="11.1429221"><ele>56.0</ele><time>2026-04-11T15:36:39.071Z</time></trkpt><trkpt lat="43.8629356" lon="11.1427796"><ele>56.0</ele><time>2026-04-11T15:36:40.071Z</time></trkpt><trkpt lat="43.8628475" lon="11.142648"><ele>56.0</ele><time>2026-04-11T15:36:41.071Z</time></trkpt><trkpt lat="43.86276" lon="11.1425185"><ele>56.0</ele><time>2026-04-11T15:36:42.071Z</time></trkpt><trkpt lat="43.8626742" lon="11.1423879"><ele>55.99999999999999</ele><time>2026-04-11T15:36:43.071Z</time></trkpt><trkpt lat="43.8625961" lon="11.142267"><ele>55.99999999999999</ele><time>2026-04-11T15:36:44.071Z</time></trkpt><trkpt lat="43.862526" lon="11.1421555"><ele>56.0</ele><time>2026-04-11T15:36:45.071Z</time></trkpt><trkpt lat="43.8624649" lon="11.1420525"><ele>56.0</ele><time>2026-04-11T15:36:46.071Z</time></trkpt><trkpt lat="43.8624126" lon="11.1419561"><ele>55.8</ele><time>2026-04-11T15:36:47.071Z</time></trkpt><trkpt lat="43.8623627" lon="11.1418388"><ele>55.599999999999994</ele><time>2026-04-11T15:36:48.071Z</time></trkpt><trkpt lat="43.8623012" lon="11.1417261"><ele>55.4</ele><time>2026-04-11T15:36:49.071Z</time></trkpt><trkpt lat="43.8622159" lon="11.1416327"><ele>55.2</ele><time>2026-04-11T15:36:50.07Z</time></trkpt><trkpt lat="43.8621252" lon="11.1415262"><ele>55.0</ele><time>2026-04-11T15:36:51.071Z</time></trkpt><trkpt lat="43.8620458" lon="11.1413903"><ele>55.0</ele><time>2026-04-11T15:36:52.071Z</time></trkpt><trkpt lat="43.8619761" lon="11.1412488"><ele>55.0</ele><time>2026-04-11T15:36:53.071Z</time></trkpt><trkpt lat="43.8619175" lon="11.1411054"><ele>55.0</ele><time>2026-04-11T15:36:54.071Z</time></trkpt><trkpt lat="43.8618647" lon="11.14095"><ele>55.0</ele><time>2026-04-11T15:36:55.071Z</time></trkpt><trkpt lat="43.8618228" lon="11.1407881"><ele>55.0</ele><time>2026-04-11T15:36:56.071Z</time></trkpt><trkpt lat="43.8617854" lon="11.1406132"><ele>55.0</ele><time>2026-04-11T15:36:57.071Z</time></trkpt><trkpt lat="43.8617579" lon="11.1404549"><ele>55.0</ele><time>2026-04-11T15:36:58.071Z</time></trkpt><trkpt lat="43.8617434" lon="11.1403204"><ele>55.0</ele><time>2026-04-11T15:36:59.071Z</time></trkpt><trkpt lat="43.8617329" lon="11.140207"><ele>55.0</ele><time>2026-04-11T15:37:00.071Z</time></trkpt><trkpt lat="43.8617191" lon="11.1401058"><ele>54.83333333333333</ele><time>2026-04-11T15:37:01.071Z</time></trkpt><trkpt lat="43.8617061" lon="11.14001"><ele>54.666666666666664</ele><time>2026-04-11T15:37:02.071Z</time></trkpt><trkpt lat="43.8616958" lon="11.1399193"><ele>54.5</ele><time>2026-04-11T15:37:03.071Z</time></trkpt><trkpt lat="43.8616861" lon="11.1398161"><ele>54.33333333333333</ele><time>2026-04-11T15:37:04.071Z</time></trkpt><trkpt lat="43.8616798" lon="11.1397193"><ele>54.166666666666664</ele><time>2026-04-11T15:37:05.071Z</time></trkpt><trkpt lat="43.8616715" lon="11.1396174"><ele>54.0</ele><time>2026-04-11T15:37:06.071Z</time></trkpt><trkpt lat="43.861659" lon="11.1394629"><ele>54.0</ele><time>2026-04-11T15:37:08.071Z</time></trkpt><trkpt lat="43.8616515" lon="11.1393566"><ele>54.00000000000001</ele><time>2026-04-11T15:37:10.071Z</time></trkpt><trkpt lat="43.8616578" lon="11.1392445"><ele>54.00000000000001</ele><time>2026-04-11T15:37:12.071Z</time></trkpt><trkpt lat="43.8616607" lon="11.1391038"><ele>54.0</ele><time>2026-04-11T15:37:14.071Z</time></trkpt><trkpt lat="43.8615885" lon="11.1390066"><ele>54.0</ele><time>2026-04-11T15:37:16.071Z</time></trkpt><trkpt lat="43.8615077" lon="11.1389217"><ele>54.0</ele><time>2026-04-11T15:37:18.071Z</time></trkpt><trkpt lat="43.8614313" lon="11.1388133"><ele>54.0</ele><time>2026-04-11T15:37:20.071Z</time></trkpt><trkpt lat="43.8613744" lon="11.1387338"><ele>54.0</ele><time>2026-04-11T15:37:22.071Z</time></trkpt><trkpt lat="43.8613496" lon="11.138625"><ele>54.0</ele><time>2026-04-11T15:37:32.071Z</time></trkpt></trkseg></trk></gpx>